Time;durP1;ratioP1;P1;durP2;ratioP2;P2;SDS_P1;SDS_P2;PMS_P1;PMS_P2;Temp;Humidity;BMP_temperature;BMP_pressure;BME280_temperature;BME280_humidity;BME280_pressure;Samples;Min_cycle;Max_cycle;Signal;HPM_P1;HPM_P2
2022/01/17 00:01:32;;;;;;;19.35;3.10;;;5.90;99.90;;;;;;4925881;28;20050;-60
2022/01/17 00:03:58;;;;;;;14.38;2.42;;;5.90;99.90;;;;;;4962653;28;20110;-59
2022/01/17 00:06:24;;;;;;;13.35;3.42;;;5.90;99.90;;;;;;4939751;28;20451;-61
2022/01/17 00:08:50;;;;;;;19.63;3.05;;;5.90;99.90;;;;;;4961101;28;20044;-62
2022/01/17 00:11:16;;;;;;;22.05;3.50;;;5.80;99.90;;;;;;4957962;28;20054;-60
2022/01/17 00:13:46;;;;;;;22.77;3.33;;;5.90;99.90;;;;;;4963251;28;20269;-60
2022/01/17 00:16:17;;;;;;;18.45;3.80;;;5.90;99.90;;;;;;4959412;28;20493;-60
2022/01/17 00:21:13;;;;;;;21.70;4.35;;;6.00;99.90;;;;;;4969910;28;20091;-59
2022/01/17 00:23:39;;;;;;;15.43;2.95;;;6.00;99.90;;;;;;4961152;28;20042;-61
2022/01/17 00:26:05;;;;;;;25.27;3.53;;;6.00;99.90;;;;;;4958745;28;20042;-59
2022/01/17 00:28:32;;;;;;;19.10;2.58;;;6.00;99.90;;;;;;4946167;28;20522;-60
2022/01/17 00:31:01;;;;;;;17.83;2.67;;;6.00;99.90;;;;;;4943702;28;20300;-58
2022/01/17 00:33:27;;;;;;;17.75;3.10;;;6.00;99.90;;;;;;4945139;28;20058;-60
2022/01/17 00:35:52;;;;;;;16.42;2.70;;;6.00;99.90;;;;;;4969702;28;20120;-60
2022/01/17 00:38:18;;;;;;;20.88;2.60;;;6.10;99.90;;;;;;4973038;28;20090;-60
2022/01/17 00:40:44;;;;;;;14.43;3.08;;;6.10;99.90;;;;;;4956342;28;20046;-60
2022/01/17 00:43:11;;;;;;;17.67;2.60;;;6.10;99.90;;;;;;4964794;28;20495;-61
2022/01/17 00:45:40;;;;;;;20.45;4.18;;;6.00;99.90;;;;;;4959252;28;20050;-61
2022/01/17 00:48:06;;;;;;;16.30;2.97;;;6.10;99.90;;;;;;4978137;28;20085;-61
2022/01/17 00:50:37;;;;;;;21.10;3.17;;;6.10;99.90;;;;;;4975698;28;20053;-60
2022/01/17 00:53:04;;;;;;;27.13;4.43;;;6.10;99.90;;;;;;4937362;28;20052;-61
2022/01/17 00:55:32;;;;;;;15.65;3.03;;;6.00;99.90;;;;;;4976314;28;20355;-61
2022/01/17 00:57:58;;;;;;;20.35;3.42;;;6.00;99.90;;;;;;4971783;28;20055;-60
2022/01/17 01:00:24;;;;;;;22.30;3.25;;;6.00;99.90;;;;;;4952717;28;20824;-60
2022/01/17 01:02:50;;;;;;;18.35;2.75;;;6.00;99.90;;;;;;4980371;28;20046;-61
2022/01/17 01:05:19;;;;;;;19.35;3.42;;;6.00;99.90;;;;;;4975303;28;20042;-60
2022/01/17 01:07:44;;;;;;;23.85;3.20;;;5.90;99.90;;;;;;4981164;28;20423;-60
2022/01/17 01:10:12;;;;;;;23.88;3.63;;;5.90;99.90;;;;;;4982138;28;20046;-60
2022/01/17 01:12:39;;;;;;;21.30;3.20;;;5.90;99.90;;;;;;4958248;28;20045;-59
2022/01/17 01:15:12;;;;;;;21.25;3.28;;;5.90;99.90;;;;;;4956097;28;20053;-60
2022/01/17 01:17:50;;;;;;;19.52;3.80;;;5.80;99.90;;;;;;4963227;28;20056;-60
2022/01/17 01:21:07;;;;;;;22.42;3.22;;;5.80;99.90;;;;;;4980433;28;20034;-60
2022/01/17 01:28:33;;;;;;;18.20;3.45;;;5.70;99.90;;;;;;4969015;28;20054;-61
2022/01/17 01:31:02;;;;;;;14.63;2.90;;;5.70;99.90;;;;;;4986188;28;20482;-61
2022/01/17 01:33:32;;;;;;;21.20;3.65;;;5.60;99.90;;;;;;4990643;28;20060;-61
2022/01/17 01:36:06;;;;;;;21.85;2.95;;;5.60;99.90;;;;;;4970028;28;20060;-60
2022/01/17 01:38:32;;;;;;;19.38;2.30;;;5.50;99.90;;;;;;4972756;28;20083;-60
2022/01/17 01:40:58;;;;;;;19.98;2.70;;;5.50;99.90;;;;;;4985246;28;20030;-61
2022/01/17 01:43:24;;;;;;;16.17;3.10;;;5.50;99.90;;;;;;4980732;28;20081;-61
2022/01/17 01:45:56;;;;;;;23.90;3.30;;;5.50;99.90;;;;;;4957265;28;20042;-60
2022/01/17 01:48:23;;;;;;;14.63;2.92;;;5.50;99.90;;;;;;4982637;28;20097;-61
2022/01/17 01:50:48;;;;;;;26.40;4.40;;;5.50;99.90;;;;;;4969226;28;20132;-60
2022/01/17 01:53:14;;;;;;;17.65;3.38;;;5.50;99.90;;;;;;4993247;28;20428;-60
2022/01/17 01:55:40;;;;;;;15.10;2.88;;;5.50;99.90;;;;;;4987746;28;20054;-62
2022/01/17 01:58:06;;;;;;;14.55;3.72;;;5.50;99.90;;;;;;4993909;28;20137;-61
2022/01/17 02:00:31;;;;;;;21.67;2.75;;;5.50;99.90;;;;;;4993409;28;20038;-60
2022/01/17 02:02:57;;;;;;;21.60;3.70;;;5.50;99.90;;;;;;4993341;28;20038;-60
2022/01/17 02:05:25;;;;;;;18.88;3.45;;;5.60;99.90;;;;;;4994655;28;20053;-60
2022/01/17 02:07:50;;;;;;;20.92;2.50;;;5.50;99.90;;;;;;4968462;28;20326;-60
2022/01/17 02:10:16;;;;;;;18.95;3.33;;;5.50;99.90;;;;;;4980725;28;20042;-60
2022/01/17 02:12:42;;;;;;;15.85;2.67;;;5.50;99.90;;;;;;4986646;28;20043;-60
2022/01/17 02:15:16;;;;;;;17.05;2.95;;;5.50;99.90;;;;;;4988995;28;20050;-60
2022/01/17 02:17:53;;;;;;;15.15;3.47;;;5.50;99.90;;;;;;4964126;28;20082;-60
2022/01/17 02:20:22;;;;;;;18.13;3.67;;;5.50;99.90;;;;;;5001445;28;20069;-60
2022/01/17 02:22:49;;;;;;;15.48;3.83;;;5.50;99.90;;;;;;4954840;28;20142;-61
2022/01/17 02:25:15;;;;;;;17.90;2.92;;;5.40;99.90;;;;;;4976568;28;20459;-61
2022/01/17 02:27:41;;;;;;;14.18;2.92;;;5.40;99.90;;;;;;4988747;28;20125;-62
2022/01/17 02:30:08;;;;;;;15.57;3.15;;;5.40;99.90;;;;;;4967906;28;20046;-60
2022/01/17 02:32:33;;;;;;;21.30;3.35;;;5.40;99.90;;;;;;4995236;28;20053;-60
2022/01/17 02:35:18;;;;;;;23.55;4.07;;;5.30;99.90;;;;;;4988000;28;20246;-59
2022/01/17 02:37:44;;;;;;;15.65;2.67;;;5.30;99.90;;;;;;5005726;28;20042;-60
2022/01/17 02:40:11;;;;;;;17.63;2.85;;;5.30;99.90;;;;;;4970732;28;20096;-61
2022/01/17 02:42:37;;;;;;;20.30;2.95;;;5.30;99.90;;;;;;4970133;28;20037;-59
2022/01/17 02:45:31;;;;;;;18.33;3.00;;;5.30;99.90;;;;;;5001612;28;20574;-59
2022/01/17 02:47:58;;;;;;;24.50;3.33;;;5.30;99.90;;;;;;5002696;28;20050;-62
2022/01/17 02:50:24;;;;;;;36.63;5.22;;;5.40;99.90;;;;;;4988788;28;20512;-61
2022/01/17 02:52:50;;;;;;;20.88;3.22;;;5.50;99.90;;;;;;5002273;28;20037;-61
2022/01/17 02:55:16;;;;;;;19.90;2.97;;;5.50;99.90;;;;;;4986955;28;20053;-60
2022/01/17 02:57:41;;;;;;;28.27;3.83;;;5.60;99.90;;;;;;4991935;28;20482;-61
2022/01/17 03:00:11;;;;;;;26.00;3.10;;;5.60;99.90;;;;;;4989743;28;20395;-60
2022/01/17 03:02:37;;;;;;;17.08;3.22;;;5.70;99.90;;;;;;4967020;28;20110;-60
2022/01/17 03:05:10;;;;;;;15.20;2.88;;;5.70;99.90;;;;;;4966762;28;20134;-61
2022/01/17 03:07:35;;;;;;;21.93;3.20;;;5.80;99.90;;;;;;4991500;28;20553;-61
2022/01/17 03:10:03;;;;;;;21.10;4.32;;;5.80;99.90;;;;;;4977898;28;20121;-61
2022/01/17 03:12:30;;;;;;;18.95;3.15;;;5.90;99.90;;;;;;4972593;28;20108;-60
2022/01/17 03:14:57;;;;;;;12.27;2.83;;;5.90;99.90;;;;;;4993874;28;20276;-60
2022/01/17 03:17:23;;;;;;;21.90;3.10;;;5.90;99.90;;;;;;4989019;28;20026;-61
2022/01/17 03:19:49;;;;;;;13.63;2.58;;;5.90;99.90;;;;;;5003349;28;20038;-60
2022/01/17 03:22:14;;;;;;;20.27;3.13;;;5.90;99.90;;;;;;4988848;28;20042;-61
2022/01/17 03:24:40;;;;;;;20.13;3.22;;;6.00;99.90;;;;;;4993110;28;20042;-60
2022/01/17 03:27:06;;;;;;;16.38;2.50;;;6.00;99.90;;;;;;4984108;28;20061;-61
2022/01/17 03:29:32;;;;;;;21.67;3.75;;;6.00;99.90;;;;;;4995205;28;20040;-61
2022/01/17 03:31:57;;;;;;;14.90;3.28;;;6.00;99.90;;;;;;4979327;28;20041;-60
2022/01/17 03:34:23;;;;;;;20.83;3.92;;;6.10;99.90;;;;;;4983360;28;20042;-61
2022/01/17 03:36:49;;;;;;;14.52;3.22;;;6.10;99.90;;;;;;4968260;28;20065;-61
2022/01/17 03:39:16;;;;;;;11.73;2.60;;;6.10;99.90;;;;;;4989641;28;20544;-61
2022/01/17 03:41:41;;;;;;;18.73;3.00;;;6.10;99.90;;;;;;4964087;28;20046;-62
2022/01/17 03:44:08;;;;;;;15.60;2.47;;;6.10;99.90;;;;;;4984092;28;20059;-60
2022/01/17 03:46:34;;;;;;;18.38;2.45;;;6.10;99.90;;;;;;4994238;28;20119;-63
2022/01/17 03:49:00;;;;;;;13.60;3.28;;;6.20;99.90;;;;;;4970928;28;20042;-60
2022/01/17 03:51:26;;;;;;;23.70;3.28;;;6.20;99.90;;;;;;4986131;28;20102;-62
2022/01/17 03:53:51;;;;;;;16.40;2.55;;;6.10;99.90;;;;;;4988181;28;20052;-62
2022/01/17 03:56:18;;;;;;;20.98;3.38;;;6.10;99.90;;;;;;4970214;28;20060;-61
2022/01/17 03:58:45;;;;;;;16.80;2.85;;;6.20;99.90;;;;;;4991268;28;20046;-62
2022/01/17 04:01:12;;;;;;;18.67;2.72;;;6.20;99.90;;;;;;5005530;28;20121;-61
2022/01/17 04:03:38;;;;;;;21.73;3.60;;;6.20;99.90;;;;;;5008680;28;20042;-61
2022/01/17 04:06:04;;;;;;;19.17;3.42;;;6.20;99.90;;;;;;4989302;28;20422;-61
2022/01/17 04:08:30;;;;;;;17.58;2.72;;;6.10;99.90;;;;;;4984735;28;20048;-61
2022/01/17 04:10:56;;;;;;;21.63;3.95;;;6.20;99.90;;;;;;4960620;28;20136;-59
2022/01/17 04:13:23;;;;;;;18.35;3.90;;;6.30;99.90;;;;;;4966494;28;20038;-61
2022/01/17 04:15:49;;;;;;;20.05;3.00;;;6.20;99.90;;;;;;4976243;28;20129;-61
2022/01/17 04:18:19;;;;;;;23.35;2.72;;;6.20;99.90;;;;;;4958851;28;20049;-60
2022/01/17 04:20:45;;;;;;;19.33;3.65;;;6.20;99.90;;;;;;4985463;28;20095;-60
2022/01/17 04:23:12;;;;;;;20.77;3.78;;;6.20;99.90;;;;;;5002509;28;20468;-62
2022/01/17 04:25:40;;;;;;;16.42;3.38;;;6.20;99.90;;;;;;4988566;28;20423;-61
2022/01/17 04:28:07;;;;;;;25.00;4.65;;;6.30;99.90;;;;;;4996845;28;20094;-61
2022/01/17 04:30:33;;;;;;;15.23;2.70;;;6.30;99.90;;;;;;4973311;28;20152;-61
2022/01/17 04:32:59;;;;;;;22.13;3.67;;;6.30;99.90;;;;;;4987233;28;20566;-60
2022/01/17 04:35:27;;;;;;;20.90;2.75;;;6.40;99.90;;;;;;4970335;28;20069;-62
2022/01/17 04:37:56;;;;;;;15.50;3.22;;;6.40;99.90;;;;;;4983080;28;20113;-61
2022/01/17 04:40:22;;;;;;;21.27;3.42;;;6.40;99.90;;;;;;4968864;28;20042;-62
2022/01/17 04:42:49;;;;;;;21.95;2.95;;;6.50;99.90;;;;;;4981527;28;20059;-61
2022/01/17 04:45:18;;;;;;;26.55;4.28;;;6.50;99.90;;;;;;4963582;28;20091;-61
2022/01/17 04:47:50;;;;;;;12.10;2.60;;;6.50;99.90;;;;;;4975474;28;20054;-61
2022/01/17 04:50:19;;;;;;;23.95;3.83;;;6.50;99.90;;;;;;4972626;28;20578;-61
2022/01/17 04:52:47;;;;;;;26.08;6.00;;;6.50;99.90;;;;;;4953459;28;20058;-61
2022/01/17 04:55:14;;;;;;;23.10;3.75;;;6.50;99.90;;;;;;4974387;28;20080;-62
2022/01/17 04:57:41;;;;;;;22.77;5.65;;;6.50;99.90;;;;;;4978043;28;20904;-61
2022/01/17 05:00:10;;;;;;;20.13;4.22;;;6.60;99.90;;;;;;4947068;28;20034;-60
2022/01/17 05:02:36;;;;;;;19.63;3.33;;;6.60;99.90;;;;;;4981656;28;20443;-61
2022/01/17 05:05:04;;;;;;;20.45;3.85;;;6.50;99.90;;;;;;4954896;28;20387;-61
2022/01/17 05:07:30;;;;;;;18.35;4.10;;;6.50;99.90;;;;;;4984464;28;20042;-61
2022/01/17 05:09:56;;;;;;;24.08;4.20;;;6.50;99.90;;;;;;4992778;28;20091;-62
2022/01/17 05:12:22;;;;;;;18.08;3.97;;;6.60;99.90;;;;;;4961711;28;20419;-62
2022/01/17 05:14:50;;;;;;;22.50;4.60;;;6.60;99.90;;;;;;4981039;28;20554;-62
2022/01/17 05:19:58;;;;;;;25.33;4.00;;;6.60;99.90;;;;;;4997024;28;20078;-61
2022/01/17 05:22:29;;;;;;;16.67;3.90;;;6.60;99.90;;;;;;4987263;28;20395;-61
2022/01/17 05:24:55;;;;;;;25.05;4.78;;;6.60;99.90;;;;;;4984776;28;20523;-60
2022/01/17 05:27:21;;;;;;;23.52;5.55;;;6.60;99.90;;;;;;4978379;28;20074;-60
2022/01/17 05:29:47;;;;;;;26.00;4.60;;;6.60;99.90;;;;;;4988398;28;20073;-61
2022/01/17 05:32:13;;;;;;;30.13;4.70;;;6.60;99.90;;;;;;4957631;28;20042;-61
2022/01/17 05:34:42;;;;;;;30.13;4.82;;;6.60;99.90;;;;;;5014602;28;20046;-60
2022/01/17 05:37:08;;;;;;;24.52;5.50;;;6.60;99.90;;;;;;4975794;28;20041;-60
2022/01/17 05:39:36;;;;;;;21.05;4.40;;;6.60;99.90;;;;;;4984469;28;20499;-60
2022/01/17 05:42:02;;;;;;;22.08;4.05;;;6.60;99.90;;;;;;4954044;28;20506;-60
2022/01/17 05:44:28;;;;;;;27.90;4.40;;;6.60;99.90;;;;;;4966184;28;20045;-60
2022/01/17 05:46:54;;;;;;;22.02;5.35;;;6.60;99.90;;;;;;4956035;28;20043;-62
2022/01/17 05:49:19;;;;;;;16.30;4.55;;;6.60;99.90;;;;;;4953594;28;20095;-60
2022/01/17 05:51:45;;;;;;;23.85;4.68;;;6.60;99.90;;;;;;4961837;28;20815;-61
2022/01/17 05:54:11;;;;;;;23.67;5.55;;;6.60;99.90;;;;;;4942574;28;20210;-60
2022/01/17 05:56:36;;;;;;;25.30;4.47;;;6.70;99.90;;;;;;4929723;28;21654;-61
2022/01/17 05:59:02;;;;;;;20.63;4.28;;;6.70;99.90;;;;;;4940959;28;20081;-60
2022/01/17 06:01:28;;;;;;;20.70;5.78;;;6.70;99.90;;;;;;4951153;28;20045;-59
2022/01/17 06:03:54;;;;;;;24.77;4.53;;;6.70;99.90;;;;;;4963279;28;20652;-62
2022/01/17 06:06:19;;;;;;;21.30;4.45;;;6.70;99.90;;;;;;4960380;28;20038;-61
2022/01/17 06:08:45;;;;;;;24.70;4.28;;;6.70;99.90;;;;;;4945941;28;20868;-62
2022/01/17 06:11:11;;;;;;;21.63;4.65;;;6.70;99.90;;;;;;4945055;28;20060;-62
2022/01/17 06:13:37;;;;;;;25.35;5.07;;;6.70;99.90;;;;;;4944573;28;20041;-60
2022/01/17 06:16:03;;;;;;;28.33;5.18;;;6.70;99.90;;;;;;5022127;28;20057;-60
2022/01/17 06:18:29;;;;;;;27.02;5.65;;;6.70;99.90;;;;;;4960699;28;20499;-61
2022/01/17 06:20:54;;;;;;;22.40;3.95;;;6.70;99.90;;;;;;4946625;28;20081;-60
2022/01/17 06:23:21;;;;;;;24.20;4.53;;;6.70;99.90;;;;;;4940574;28;20049;-62
2022/01/17 06:25:47;;;;;;;27.40;5.15;;;6.70;99.90;;;;;;4942540;28;20034;-60
2022/01/17 06:28:13;;;;;;;30.23;4.95;;;6.80;99.90;;;;;;4961060;28;20121;-60
2022/01/17 06:30:38;;;;;;;31.58;4.75;;;6.70;99.90;;;;;;4954577;28;20158;-60
2022/01/17 06:33:04;;;;;;;28.60;4.50;;;6.70;99.90;;;;;;4981384;28;20534;-61
2022/01/17 06:35:31;;;;;;;24.98;6.15;;;6.70;99.90;;;;;;4981954;28;20092;-62
2022/01/17 06:37:57;;;;;;;32.35;4.78;;;6.70;99.90;;;;;;5028370;28;20122;-61
2022/01/17 06:40:22;;;;;;;39.35;5.68;;;6.70;99.90;;;;;;4994835;28;20138;-60
2022/01/17 06:42:50;;;;;;;35.05;5.40;;;6.70;99.90;;;;;;4986614;28;20050;-60
2022/01/17 06:45:18;;;;;;;25.90;5.10;;;6.70;99.90;;;;;;4990032;28;20487;-61
2022/01/17 06:47:44;;;;;;;22.00;5.13;;;6.70;99.90;;;;;;4962951;28;20041;-60
2022/01/17 06:50:11;;;;;;;33.72;5.20;;;6.70;99.90;;;;;;4972377;28;20038;-60
2022/01/17 06:52:38;;;;;;;31.70;6.35;;;6.70;99.90;;;;;;4999279;28;20117;-61
2022/01/17 06:55:05;;;;;;;33.30;6.65;;;6.70;99.90;;;;;;4971384;28;20049;-62
2022/01/17 06:57:30;;;;;;;31.48;5.68;;;6.80;99.90;;;;;;4987784;28;20081;-60
2022/01/17 06:59:56;;;;;;;35.38;6.43;;;6.80;99.90;;;;;;4983974;28;20042;-61
2022/01/17 07:02:22;;;;;;;34.72;4.63;;;6.80;99.90;;;;;;5001295;28;20090;-60
2022/01/17 07:04:47;;;;;;;24.25;4.85;;;6.80;99.90;;;;;;4991832;28;20412;-61
2022/01/17 07:07:13;;;;;;;31.45;4.70;;;6.90;99.90;;;;;;4970058;28;20038;-60
2022/01/17 07:09:39;;;;;;;37.03;5.47;;;6.90;99.90;;;;;;4988789;28;20042;-62
2022/01/17 07:12:05;;;;;;;33.25;5.28;;;6.90;99.90;;;;;;4984396;28;20104;-60
2022/01/17 07:14:31;;;;;;;28.35;5.55;;;6.90;99.90;;;;;;4986203;28;20272;-60
2022/01/17 07:16:57;;;;;;;28.40;5.15;;;6.90;99.90;;;;;;4984916;28;20358;-61
2022/01/17 07:19:24;;;;;;;27.77;5.00;;;6.90;99.90;;;;;;4976218;28;20038;-61
2022/01/17 07:21:51;;;;;;;38.13;6.70;;;6.90;99.90;;;;;;4959351;28;20515;-61
2022/01/17 07:24:17;;;;;;;39.15;5.85;;;6.90;99.90;;;;;;4984184;28;20052;-60
2022/01/17 07:26:43;;;;;;;26.40;5.43;;;6.90;99.90;;;;;;4973976;28;20052;-61
2022/01/17 07:29:09;;;;;;;36.10;6.28;;;7.00;99.90;;;;;;4971686;28;20042;-60
2022/01/17 07:31:35;;;;;;;36.60;5.80;;;7.00;99.90;;;;;;4981093;28;20042;-60
2022/01/17 07:34:02;;;;;;;31.23;6.25;;;7.00;99.90;;;;;;4969200;28;20487;-61
2022/01/17 07:36:28;;;;;;;34.28;5.93;;;7.10;99.90;;;;;;4983106;28;20034;-61
2022/01/17 07:38:54;;;;;;;36.33;5.78;;;7.10;99.90;;;;;;4967803;28;20500;-60
2022/01/17 07:41:20;;;;;;;38.20;6.10;;;7.10;99.90;;;;;;4982490;28;20040;-61
2022/01/17 07:43:47;;;;;;;36.75;7.22;;;7.10;99.90;;;;;;4982216;28;20492;-59
2022/01/17 07:46:23;;;;;;;33.80;6.00;;;7.20;99.90;;;;;;4964632;28;20046;-60
2022/01/17 07:49:08;;;;;;;31.65;5.50;;;7.20;99.90;;;;;;4979408;28;20072;-61
2022/01/17 07:51:35;;;;;;;34.83;5.20;;;7.20;99.90;;;;;;4983793;28;20101;-61
2022/01/17 07:54:00;;;;;;;36.00;6.47;;;7.30;99.90;;;;;;4974529;28;20555;-61
2022/01/17 07:56:26;;;;;;;27.80;4.70;;;7.30;99.90;;;;;;4959933;28;20133;-61
2022/01/17 07:58:53;;;;;;;30.38;5.18;;;7.30;99.90;;;;;;4959711;28;20042;-61
2022/01/17 08:01:20;;;;;;;31.13;6.50;;;7.30;99.90;;;;;;4971364;28;20041;-61
2022/01/17 08:03:45;;;;;;;29.85;5.35;;;7.40;99.90;;;;;;4945126;28;20061;-61
2022/01/17 08:06:11;;;;;;;33.70;4.85;;;7.40;99.90;;;;;;4975326;28;20602;-60
2022/01/17 08:08:37;;;;;;;32.95;5.68;;;7.40;99.90;;;;;;4959435;28;20046;-61
2022/01/17 08:11:03;;;;;;;33.70;5.93;;;7.40;99.90;;;;;;4952105;28;20038;-62
2022/01/17 08:13:29;;;;;;;33.15;5.20;;;7.40;99.90;;;;;;4968465;28;20092;-60
2022/01/17 08:15:55;;;;;;;35.92;6.47;;;7.40;99.90;;;;;;4972351;28;20529;-61
2022/01/17 08:18:21;;;;;;;26.30;5.50;;;7.50;99.90;;;;;;4951349;28;20042;-61
2022/01/17 08:20:47;;;;;;;29.60;5.95;;;7.50;99.90;;;;;;4966289;28;20034;-61
2022/01/17 08:23:13;;;;;;;29.67;5.85;;;7.60;99.90;;;;;;4951849;28;20080;-62
2022/01/17 08:25:39;;;;;;;36.30;6.57;;;7.60;99.90;;;;;;4956492;28;20048;-60
2022/01/17 08:28:05;;;;;;;25.95;5.45;;;7.70;99.90;;;;;;4957759;28;20045;-61
2022/01/17 08:30:32;;;;;;;28.25;5.80;;;7.70;99.90;;;;;;4980013;28;20125;-61
2022/01/17 08:32:59;;;;;;;29.10;4.82;;;7.70;99.90;;;;;;4986553;28;20061;-63
2022/01/17 08:35:25;;;;;;;36.50;5.38;;;7.70;99.90;;;;;;4959761;28;20042;-60
2022/01/17 08:37:51;;;;;;;31.73;5.25;;;7.80;99.90;;;;;;4985706;28;20045;-62
2022/01/17 08:40:18;;;;;;;31.67;6.75;;;7.80;99.90;;;;;;4955640;28;20620;-61
2022/01/17 08:45:23;;;;;;;36.33;5.65;;;7.90;99.90;;;;;;4995404;28;20143;-66
2022/01/17 08:47:51;;;;;;;35.03;5.82;;;7.90;99.90;;;;;;4981839;28;20049;-66
2022/01/17 08:50:20;;;;;;;27.35;5.32;;;8.00;99.90;;;;;;4969629;28;20508;-65
2022/01/17 08:52:46;;;;;;;29.55;5.38;;;8.00;99.90;;;;;;4965996;28;20038;-65
2022/01/17 08:55:13;;;;;;;29.27;5.32;;;8.00;99.90;;;;;;4967672;28;20364;-65
2022/01/17 08:57:39;;;;;;;27.23;5.43;;;8.00;99.90;;;;;;4954578;28;20046;-65
2022/01/17 09:00:07;;;;;;;33.65;5.35;;;8.00;99.90;;;;;;4956111;28;20487;-65
2022/01/17 09:02:34;;;;;;;62.30;8.75;;;8.00;99.90;;;;;;4983707;28;20042;-65
2022/01/17 09:04:59;;;;;;;42.05;7.47;;;8.00;99.90;;;;;;4959784;28;20046;-65
2022/01/17 09:07:25;;;;;;;36.08;6.55;;;8.10;99.90;;;;;;4952968;28;20049;-65
2022/01/17 09:09:51;;;;;;;30.60;4.80;;;8.10;99.90;;;;;;4950234;28;20042;-65
2022/01/17 09:12:17;;;;;;;37.78;5.40;;;8.10;99.90;;;;;;4945052;28;20045;-65
2022/01/17 09:14:42;;;;;;;35.35;5.45;;;8.10;99.90;;;;;;4965357;28;20670;-65
2022/01/17 09:17:10;;;;;;;33.25;6.10;;;8.20;99.90;;;;;;4959967;28;20057;-64
2022/01/17 09:19:40;;;;;;;30.10;6.72;;;8.20;99.90;;;;;;4978195;28;21984;-65
2022/01/17 09:22:07;;;;;;;32.10;6.15;;;8.20;99.90;;;;;;4968223;28;20038;-65
2022/01/17 09:24:33;;;;;;;41.97;6.45;;;8.30;99.90;;;;;;4966893;28;20034;-65
2022/01/17 09:27:00;;;;;;;34.38;7.13;;;8.30;99.90;;;;;;4970287;28;20045;-65
2022/01/17 09:29:26;;;;;;;33.72;5.40;;;8.30;99.90;;;;;;4948779;28;20204;-65
2022/01/17 09:31:51;;;;;;;33.63;6.63;;;8.40;99.90;;;;;;4964841;28;20046;-65
2022/01/17 09:34:17;;;;;;;35.70;6.55;;;8.40;99.90;;;;;;4917411;28;20056;-65
2022/01/17 09:36:43;;;;;;;31.80;6.05;;;8.40;99.90;;;;;;4970207;28;20165;-65
2022/01/17 09:39:10;;;;;;;35.55;6.43;;;8.50;99.90;;;;;;5022231;28;20042;-65
2022/01/17 09:41:36;;;;;;;46.47;8.60;;;8.50;99.90;;;;;;4958095;28;20042;-66
2022/01/17 09:44:05;;;;;;;37.85;6.40;;;8.60;99.90;;;;;;4948430;28;20034;-65
2022/01/17 09:46:36;;;;;;;39.75;6.90;;;8.70;99.90;;;;;;4947354;28;20029;-65
2022/01/17 09:49:13;;;;;;;37.63;6.88;;;8.80;99.90;;;;;;4970434;28;20113;-66
2022/01/17 09:54:29;;;;;;;33.65;7.32;;;8.90;99.90;;;;;;4949642;28;20065;-66
2022/01/17 09:56:57;;;;;;;37.38;6.53;;;8.80;99.90;;;;;;4940345;28;20141;-66
2022/01/17 09:59:23;;;;;;;39.33;5.80;;;8.80;99.90;;;;;;4954658;28;20050;-66
2022/01/17 10:01:49;;;;;;;37.75;7.97;;;8.90;99.90;;;;;;4962119;28;20043;-66
2022/01/17 10:04:17;;;;;;;43.33;8.15;;;8.90;99.90;;;;;;4974823;28;20052;-66
2022/01/17 10:07:05;;;;;;;43.38;7.68;;;9.00;99.90;;;;;;4958590;28;20038;-66
2022/01/17 10:09:33;;;;;;;40.17;7.78;;;9.00;99.90;;;;;;4954782;28;20038;-66
2022/01/17 10:12:14;;;;;;;44.08;8.23;;;9.00;99.90;;;;;;4956920;28;20129;-66
2022/01/17 10:15:03;;;;;;;46.53;7.63;;;9.00;99.90;;;;;;4945412;28;20701;-66
2022/01/17 10:17:47;;;;;;;42.78;9.05;;;9.00;99.90;;;;;;4938654;28;20514;-66
2022/01/17 10:20:16;;;;;;;37.88;7.22;;;9.00;99.90;;;;;;4930197;28;20111;-66
2022/01/17 10:22:54;;;;;;;49.85;7.93;;;9.00;99.90;;;;;;4936985;28;20057;-65
2022/01/17 10:25:49;;;;;;;44.72;7.55;;;9.10;99.90;;;;;;4936537;28;20408;-66
2022/01/17 10:28:45;;;;;;;41.38;7.70;;;9.20;99.90;;;;;;4941583;28;20100;-65
2022/01/17 10:36:52;;;;;;;46.33;8.77;;;9.10;99.90;;;;;;4967556;28;20088;-64
2022/01/17 10:39:19;;;;;;;51.65;8.10;;;9.10;99.90;;;;;;4961418;28;20050;-64
2022/01/17 10:41:45;;;;;;;46.25;7.68;;;9.20;99.90;;;;;;4960739;28;20564;-64
2022/01/17 10:44:11;;;;;;;40.28;7.72;;;9.20;99.90;;;;;;4959415;28;20058;-65
2022/01/17 10:46:36;;;;;;;51.58;9.23;;;9.20;99.90;;;;;;4976632;28;20026;-65
2022/01/17 10:49:03;;;;;;;42.63;7.88;;;9.30;99.90;;;;;;4956345;28;20045;-65
2022/01/17 10:51:32;;;;;;;44.50;8.20;;;9.30;99.90;;;;;;4949206;28;20076;-64
2022/01/17 10:53:59;;;;;;;48.55;8.63;;;9.30;99.90;;;;;;4956906;28;20038;-64
2022/01/17 10:56:26;;;;;;;42.55;8.13;;;9.40;99.90;;;;;;4961872;28;20050;-64
2022/01/17 10:59:03;;;;;;;49.17;9.80;;;9.40;99.90;;;;;;4943714;28;20416;-65
2022/01/17 11:01:38;;;;;;;46.80;8.90;;;9.40;99.90;;;;;;4943419;28;20650;-65
2022/01/17 11:04:09;;;;;;;45.67;9.20;;;9.30;99.90;;;;;;4968367;28;20615;-65
2022/01/17 11:06:49;;;;;;;49.40;9.43;;;9.30;99.90;;;;;;4956255;28;20037;-65
2022/01/17 11:09:15;;;;;;;60.10;11.45;;;9.40;99.90;;;;;;4951772;28;20045;-65
2022/01/17 11:11:41;;;;;;;51.97;9.95;;;9.50;99.90;;;;;;4956604;28;20038;-65
2022/01/17 11:14:08;;;;;;;51.42;9.63;;;9.60;99.90;;;;;;4964868;28;20531;-64
2022/01/17 11:16:36;;;;;;;48.05;11.18;;;9.70;99.90;;;;;;4962429;28;20098;-65
2022/01/17 11:20:01;;;;;;;39.58;7.80;;;9.70;99.90;;;;;;4948184;28;20042;-65
2022/01/17 11:21:49;;;;;;;46.58;7.97;;;9.80;99.90;;;;;;4958790;28;20071;-64
2022/01/17 11:24:15;;;;;;;49.33;11.07;;;9.80;99.90;;;;;;4951707;28;20116;-65
2022/01/17 11:26:42;;;;;;;43.53;8.23;;;9.90;99.90;;;;;;4955252;28;20479;-65
2022/01/17 11:29:08;;;;;;;60.33;9.25;;;9.90;99.90;;;;;;4954236;28;20048;-65
2022/01/17 11:31:34;;;;;;;42.58;7.75;;;10.10;99.90;;;;;;4947088;28;20495;-65
2022/01/17 11:34:00;;;;;;;44.08;8.73;;;9.90;99.90;;;;;;4966472;28;20058;-66
2022/01/17 11:36:27;;;;;;;43.22;8.55;;;10.10;99.90;;;;;;5027599;28;20388;-65
2022/01/17 11:38:55;;;;;;;52.40;9.05;;;10.10;99.90;;;;;;4975950;28;20038;-65
2022/01/17 11:41:27;;;;;;;53.10;10.25;;;10.10;99.90;;;;;;4957946;28;20851;-65
2022/01/17 11:44:05;;;;;;;43.17;9.30;;;10.10;99.90;;;;;;4987195;28;20144;-65
2022/01/17 11:46:34;;;;;;;54.30;9.10;;;10.20;99.90;;;;;;4952008;28;20050;-65
2022/01/17 11:49:06;;;;;;;48.15;9.50;;;10.20;99.90;;;;;;4963357;28;20041;-65
2022/01/17 11:51:46;;;;;;;45.03;10.40;;;10.30;99.90;;;;;;4946800;28;20495;-65
2022/01/17 11:54:27;;;;;;;51.33;9.10;;;10.20;99.90;;;;;;4965320;28;20045;-65
2022/01/17 11:56:59;;;;;;;42.00;9.98;;;10.20;99.90;;;;;;4963520;28;20046;-65
2022/01/17 11:59:38;;;;;;;59.38;9.73;;;10.20;99.90;;;;;;4960689;28;20055;-65
2022/01/17 12:02:13;;;;;;;56.55;11.40;;;10.10;99.90;;;;;;4958071;28;20045;-65
2022/01/17 12:04:39;;;;;;;53.67;9.07;;;10.10;99.90;;;;;;4936429;28;20412;-65
2022/01/17 12:07:05;;;;;;;52.25;9.93;;;10.10;99.90;;;;;;4971601;28;20080;-66
2022/01/17 12:09:32;;;;;;;50.70;8.70;;;10.00;99.90;;;;;;4938187;28;20042;-65
2022/01/17 12:12:03;;;;;;;50.42;10.93;;;9.90;99.90;;;;;;4974198;28;20129;-65
2022/01/17 12:14:34;;;;;;;55.22;9.88;;;10.00;99.90;;;;;;4957673;28;20060;-66
2022/01/17 12:17:19;;;;;;;44.28;8.95;;;9.90;99.90;;;;;;4953216;28;20060;-66
2022/01/17 12:20:03;;;;;;;46.80;9.43;;;10.00;99.90;;;;;;4950720;28;20046;-66
2022/01/17 12:22:55;;;;;;;43.60;10.80;;;10.00;99.90;;;;;;4938710;28;20508;-66
2022/01/17 12:25:29;;;;;;;40.25;8.77;;;10.10;99.90;;;;;;4936066;28;20076;-66
2022/01/17 12:28:04;;;;;;;46.97;8.80;;;10.10;99.90;;;;;;4953736;28;20077;-65
2022/01/17 12:30:52;;;;;;;56.58;8.95;;;10.10;99.90;;;;;;4950021;28;20449;-65
2022/01/17 12:33:30;;;;;;;50.50;9.63;;;10.00;99.90;;;;;;4933453;28;20099;-65
2022/01/17 12:35:58;;;;;;;49.80;9.80;;;10.00;99.90;;;;;;4954757;28;21023;-65
2022/01/17 12:38:39;;;;;;;51.10;9.93;;;10.10;99.90;;;;;;4942307;28;20038;-66
2022/01/17 12:41:05;;;;;;;57.17;10.85;;;10.10;99.90;;;;;;4934247;28;20433;-66
2022/01/17 12:43:34;;;;;;;65.63;11.60;;;10.10;99.90;;;;;;4955067;28;20073;-65
2022/01/17 12:46:05;;;;;;;51.08;10.95;;;10.20;99.90;;;;;;5019193;28;20052;-66
2022/01/17 12:48:36;;;;;;;56.45;10.63;;;10.30;99.90;;;;;;4939450;28;20042;-65
2022/01/17 12:51:07;;;;;;;52.35;10.50;;;10.30;99.90;;;;;;4936740;28;20046;-65
2022/01/17 12:53:34;;;;;;;62.40;10.73;;;10.30;99.90;;;;;;4940058;28;20143;-65
2022/01/17 12:56:03;;;;;;;51.00;9.00;;;10.20;99.90;;;;;;4940778;28;20162;-65
2022/01/17 12:58:32;;;;;;;68.57;11.98;;;10.10;99.90;;;;;;4937094;28;20060;-65
2022/01/17 13:01:04;;;;;;;65.70;9.88;;;10.00;99.90;;;;;;4955967;28;20046;-66
2022/01/17 13:03:33;;;;;;;60.88;10.15;;;10.00;99.90;;;;;;4939427;28;20045;-65
2022/01/17 13:06:02;;;;;;;54.67;10.65;;;10.00;99.90;;;;;;4945249;28;20038;-66
2022/01/17 13:08:28;;;;;;;57.78;10.23;;;9.90;99.90;;;;;;4920581;28;20069;-66
2022/01/17 13:10:55;;;;;;;62.85;11.30;;;9.90;99.90;;;;;;4944950;28;20970;-66
2022/01/17 13:13:21;;;;;;;56.45;10.52;;;9.80;99.90;;;;;;4942125;28;20625;-66